Aeroporto :
LOGIN :

Iscrizione | Disclaimer

   EN    FR    IT 

 










Sommario :    VFR   VFR Marginale   IFR   IFR Intensivo   IFR Molto Intensivo
Visibilità : 
Base nubi : 
>= 8 km
>= 3000ft
5 / 8 km
1000 / 3000 ft
1500m / 5 km
500 / 1000 ft
800 / 1500m
200 / 500 ft
< 800m
< 200 ft
Simboli :   Temporali  Nebbia  Neve Forte  Precipitazioni Forti  Vento > 20 kt
SIGMETs :   Varie  Temporali  Ghiacco  Turbolenza  Onda orograficha  Ceneri Vulcaniche






- Altitudine del aeroporto : 1947 ft
- Codice IATA : OBF


EDMO - Oberpfaffenhofen

ULTIMO METAR :
  • 210020Z AUTO 24018KT 9999 // OVC050/// 08/01 Q1018

METARs OBSOLETI :
  • 202350Z AUTO 25019KT 9999 // FEW050/// BKN068/// 07/01 Q1018
  • 202320Z AUTO 25018KT 9999 // NCD 07/01 Q1018
  • 202250Z AUTO 24016G26KT 9999 // NCD 06/M00 Q1018
  • 202220Z AUTO 21009KT 9999 // NCD 01/M01 Q1018
  • 202150Z AUTO 24007KT 9999 // NCD 01/M02 Q1018

TAF TAF EDMO
Valido dal 20 a 18 ore il 21 a 03 ore UTC


201700Z 2018/2103 21005KT CAVOK
BECMG 2021/2024 24015G25KT
TEMPO 2101/2103 RA
BECMG 2101/2103 28025G35KT



MetMap, La meteo Aeronautica in un colpo d'occhio ! - Copyright ORBIFLY Dicembre 2007 - Disclaimer

ORBIFLY MET'MAP TEAM :

Programmazione e sviluppo : Alexandra Zaïnal
Concezione : Baudouin d'Aumeries
Aiuto per la programmazione : Marc-Olivier Méhu
Supporto tecnico e logistico : Manuel Goepfert
Aiuto per la traduzione : Arnaldo La Scala

Contatto : metmap@orbifly.com




FONTI E CREDITI :

   NOAA